sensor_id;sensor_type;location;lat;lon;timestamp;temperature;humidity
51476;DHT22;37554;50.362;7.568;2023-05-16T00:01:07;21.30;51.10
51476;DHT22;37554;50.362;7.568;2023-05-16T00:03:33;21.30;51.10
51476;DHT22;37554;50.362;7.568;2023-05-16T00:05:59;21.30;51.10
51476;DHT22;37554;50.362;7.568;2023-05-16T00:08:27;21.30;51.10
51476;DHT22;37554;50.362;7.568;2023-05-16T00:10:53;21.30;51.10
51476;DHT22;37554;50.362;7.568;2023-05-16T00:13:19;21.30;51.10
51476;DHT22;37554;50.362;7.568;2023-05-16T00:15:51;21.20;51.00
51476;DHT22;37554;50.362;7.568;2023-05-16T00:18:18;21.20;51.00
51476;DHT22;37554;50.362;7.568;2023-05-16T00:20:44;21.20;51.00
51476;DHT22;37554;50.362;7.568;2023-05-16T00:23:10;21.20;50.90
51476;DHT22;37554;50.362;7.568;2023-05-16T00:25:37;21.20;50.90
51476;DHT22;37554;50.362;7.568;2023-05-16T00:28:02;21.20;51.00
51476;DHT22;37554;50.362;7.568;2023-05-16T00:30:28;21.20;51.00
51476;DHT22;37554;50.362;7.568;2023-05-16T00:32:54;21.20;51.00
51476;DHT22;37554;50.362;7.568;2023-05-16T00:35:20;21.20;51.00
51476;DHT22;37554;50.362;7.568;2023-05-16T00:37:46;21.10;50.90
51476;DHT22;37554;50.362;7.568;2023-05-16T00:40:11;21.20;51.00
51476;DHT22;37554;50.362;7.568;2023-05-16T00:42:38;21.10;50.90
51476;DHT22;37554;50.362;7.568;2023-05-16T00:45:04;21.10;50.90
51476;DHT22;37554;50.362;7.568;2023-05-16T00:47:31;21.10;50.90
51476;DHT22;37554;50.362;7.568;2023-05-16T00:49:57;21.10;50.90
51476;DHT22;37554;50.362;7.568;2023-05-16T00:52:23;21.10;50.90
51476;DHT22;37554;50.362;7.568;2023-05-16T00:54:50;21.10;51.00
51476;DHT22;37554;50.362;7.568;2023-05-16T00:57:16;21.00;50.90
51476;DHT22;37554;50.362;7.568;2023-05-16T00:59:42;21.10;51.00
51476;DHT22;37554;50.362;7.568;2023-05-16T01:02:08;21.00;51.00
51476;DHT22;37554;50.362;7.568;2023-05-16T01:04:34;21.00;51.00
51476;DHT22;37554;50.362;7.568;2023-05-16T01:07:01;21.00;51.00
51476;DHT22;37554;50.362;7.568;2023-05-16T01:09:27;21.00;51.00
51476;DHT22;37554;50.362;7.568;2023-05-16T01:15:12;21.00;51.20
51476;DHT22;37554;50.362;7.568;2023-05-16T01:23:23;20.90;51.20
51476;DHT22;37554;50.362;7.568;2023-05-16T01:25:55;20.90;51.10
51476;DHT22;37554;50.362;7.568;2023-05-16T01:28:23;20.90;51.10
51476;DHT22;37554;50.362;7.568;2023-05-16T01:30:50;20.90;51.20
51476;DHT22;37554;50.362;7.568;2023-05-16T01:33:16;20.90;51.20
51476;DHT22;37554;50.362;7.568;2023-05-16T01:38:55;20.90;51.40
51476;DHT22;37554;50.362;7.568;2023-05-16T01:41:28;20.80;51.30
51476;DHT22;37554;50.362;7.568;2023-05-16T01:43:59;20.80;51.30
51476;DHT22;37554;50.362;7.568;2023-05-16T01:46:29;20.80;51.30
51476;DHT22;37554;50.362;7.568;2023-05-16T01:48:57;20.80;51.30
51476;DHT22;37554;50.362;7.568;2023-05-16T01:51:28;20.80;51.30
51476;DHT22;37554;50.362;7.568;2023-05-16T01:53:59;20.80;51.30
51476;DHT22;37554;50.362;7.568;2023-05-16T01:56:30;20.80;51.30
51476;DHT22;37554;50.362;7.568;2023-05-16T01:58:57;20.80;51.40
51476;DHT22;37554;50.362;7.568;2023-05-16T02:01:23;20.80;51.40
51476;DHT22;37554;50.362;7.568;2023-05-16T02:03:49;20.70;51.40
51476;DHT22;37554;50.362;7.568;2023-05-16T02:06:16;20.70;51.40
51476;DHT22;37554;50.362;7.568;2023-05-16T02:08:41;20.70;51.40
51476;DHT22;37554;50.362;7.568;2023-05-16T02:11:07;20.70;51.50
51476;DHT22;37554;50.362;7.568;2023-05-16T02:13:33;20.70;51.50
51476;DHT22;37554;50.362;7.568;2023-05-16T02:15:59;20.70;51.60
51476;DHT22;37554;50.362;7.568;2023-05-16T02:18:24;20.70;51.60
51476;DHT22;37554;50.362;7.568;2023-05-16T02:20:51;20.70;51.70
51476;DHT22;37554;50.362;7.568;2023-05-16T02:23:16;20.60;51.70
51476;DHT22;37554;50.362;7.568;2023-05-16T02:25:42;20.60;51.70
51476;DHT22;37554;50.362;7.568;2023-05-16T02:28:07;20.60;52.40
51476;DHT22;37554;50.362;7.568;2023-05-16T02:30:33;20.60;51.80
51476;DHT22;37554;50.362;7.568;2023-05-16T02:32:59;20.60;51.90
51476;DHT22;37554;50.362;7.568;2023-05-16T02:35:24;20.60;51.90
51476;DHT22;37554;50.362;7.568;2023-05-16T02:37:50;20.60;52.00
51476;DHT22;37554;50.362;7.568;2023-05-16T02:40:16;20.60;52.00
51476;DHT22;37554;50.362;7.568;2023-05-16T02:42:41;20.60;52.00
51476;DHT22;37554;50.362;7.568;2023-05-16T02:45:07;20.60;52.10
51476;DHT22;37554;50.362;7.568;2023-05-16T02:47:33;20.50;52.00
51476;DHT22;37554;50.362;7.568;2023-05-16T02:49:58;20.50;52.10
51476;DHT22;37554;50.362;7.568;2023-05-16T02:52:24;20.50;52.20
51476;DHT22;37554;50.362;7.568;2023-05-16T02:54:50;20.50;52.30
51476;DHT22;37554;50.362;7.568;2023-05-16T02:57:15;20.50;52.30
51476;DHT22;37554;50.362;7.568;2023-05-16T02:59:41;20.50;52.30
51476;DHT22;37554;50.362;7.568;2023-05-16T03:02:07;20.50;52.30
51476;DHT22;37554;50.362;7.568;2023-05-16T03:04:32;20.50;52.40
51476;DHT22;37554;50.362;7.568;2023-05-16T03:06:58;20.50;52.40
51476;DHT22;37554;50.362;7.568;2023-05-16T03:09:24;20.40;52.50
51476;DHT22;37554;50.362;7.568;2023-05-16T03:11:50;20.50;52.50
51476;DHT22;37554;50.362;7.568;2023-05-16T03:14:16;20.40;52.50
51476;DHT22;37554;50.362;7.568;2023-05-16T03:16:41;20.40;52.50
51476;DHT22;37554;50.362;7.568;2023-05-16T03:19:09;20.40;52.50
51476;DHT22;37554;50.362;7.568;2023-05-16T03:21:34;20.40;52.50
51476;DHT22;37554;50.362;7.568;2023-05-16T03:24:02;20.30;52.50
51476;DHT22;37554;50.362;7.568;2023-05-16T03:26:28;20.30;52.70
51476;DHT22;37554;50.362;7.568;2023-05-16T03:28:53;20.30;52.70
51476;DHT22;37554;50.362;7.568;2023-05-16T03:31:19;20.30;52.70
51476;DHT22;37554;50.362;7.568;2023-05-16T03:33:45;20.30;52.80
51476;DHT22;37554;50.362;7.568;2023-05-16T03:36:10;20.30;52.80
51476;DHT22;37554;50.362;7.568;2023-05-16T03:38:36;20.30;52.90
51476;DHT22;37554;50.362;7.568;2023-05-16T03:41:02;20.30;52.90
51476;DHT22;37554;50.362;7.568;2023-05-16T03:43:28;20.30;52.90
51476;DHT22;37554;50.362;7.568;2023-05-16T03:45:53;20.20;52.90
51476;DHT22;37554;50.362;7.568;2023-05-16T03:48:20;20.20;53.00
51476;DHT22;37554;50.362;7.568;2023-05-16T03:50:46;20.30;53.00
51476;DHT22;37554;50.362;7.568;2023-05-16T03:53:12;20.20;53.00
51476;DHT22;37554;50.362;7.568;2023-05-16T03:55:38;20.20;53.10
51476;DHT22;37554;50.362;7.568;2023-05-16T03:58:03;20.20;53.10
51476;DHT22;37554;50.362;7.568;2023-05-16T04:00:29;20.20;53.20
51476;DHT22;37554;50.362;7.568;2023-05-16T04:02:55;20.10;53.10
51476;DHT22;37554;50.362;7.568;2023-05-16T04:05:21;20.10;53.10
51476;DHT22;37554;50.362;7.568;2023-05-16T04:07:46;20.10;53.10
51476;DHT22;37554;50.362;7.568;2023-05-16T04:10:12;20.10;53.20
51476;DHT22;37554;50.362;7.568;2023-05-16T04:12:38;20.10;53.20
51476;DHT22;37554;50.362;7.568;2023-05-16T04:15:04;20.10;53.20
51476;DHT22;37554;50.362;7.568;2023-05-16T04:17:30;20.10;53.20
51476;DHT22;37554;50.362;7.568;2023-05-16T04:19:56;20.10;53.30
51476;DHT22;37554;50.362;7.568;2023-05-16T04:22:21;20.10;53.30
51476;DHT22;37554;50.362;7.568;2023-05-16T04:24:47;20.10;53.30
51476;DHT22;37554;50.362;7.568;2023-05-16T04:27:13;20.10;53.30
51476;DHT22;37554;50.362;7.568;2023-05-16T04:29:39;20.10;53.30
51476;DHT22;37554;50.362;7.568;2023-05-16T04:32:05;20.10;53.30
51476;DHT22;37554;50.362;7.568;2023-05-16T04:34:32;20.10;53.30
51476;DHT22;37554;50.362;7.568;2023-05-16T04:36:58;20.00;53.30
51476;DHT22;37554;50.362;7.568;2023-05-16T04:39:24;20.00;53.30
51476;DHT22;37554;50.362;7.568;2023-05-16T04:41:50;20.00;53.40
51476;DHT22;37554;50.362;7.568;2023-05-16T04:44:16;20.00;53.30
51476;DHT22;37554;50.362;7.568;2023-05-16T04:46:42;20.00;53.40
51476;DHT22;37554;50.362;7.568;2023-05-16T04:49:07;20.00;53.30
51476;DHT22;37554;50.362;7.568;2023-05-16T04:51:33;20.00;53.30
51476;DHT22;37554;50.362;7.568;2023-05-16T04:53:59;20.00;53.30
51476;DHT22;37554;50.362;7.568;2023-05-16T04:56:25;20.00;53.30
51476;DHT22;37554;50.362;7.568;2023-05-16T04:58:51;20.00;53.30
51476;DHT22;37554;50.362;7.568;2023-05-16T05:01:17;20.00;53.20
51476;DHT22;37554;50.362;7.568;2023-05-16T05:03:43;20.00;53.30
51476;DHT22;37554;50.362;7.568;2023-05-16T05:06:08;20.00;53.20
51476;DHT22;37554;50.362;7.568;2023-05-16T05:08:34;20.10;53.20
51476;DHT22;37554;50.362;7.568;2023-05-16T05:11:00;20.10;53.20
51476;DHT22;37554;50.362;7.568;2023-05-16T05:13:25;20.00;53.20
51476;DHT22;37554;50.362;7.568;2023-05-16T05:15:51;20.00;53.10
51476;DHT22;37554;50.362;7.568;2023-05-16T05:18:17;20.10;53.20
51476;DHT22;37554;50.362;7.568;2023-05-16T05:20:43;20.10;53.20
51476;DHT22;37554;50.362;7.568;2023-05-16T05:23:08;20.10;53.10
51476;DHT22;37554;50.362;7.568;2023-05-16T05:25:38;20.10;53.80
51476;DHT22;37554;50.362;7.568;2023-05-16T05:28:04;20.10;53.10
51476;DHT22;37554;50.362;7.568;2023-05-16T05:30:29;20.10;53.00
51476;DHT22;37554;50.362;7.568;2023-05-16T05:32:55;20.10;53.00
51476;DHT22;37554;50.362;7.568;2023-05-16T05:35:21;20.10;53.00
51476;DHT22;37554;50.362;7.568;2023-05-16T05:37:46;20.10;53.00
51476;DHT22;37554;50.362;7.568;2023-05-16T05:40:13;20.10;53.00
51476;DHT22;37554;50.362;7.568;2023-05-16T05:42:39;20.10;52.90
51476;DHT22;37554;50.362;7.568;2023-05-16T05:45:05;20.10;52.90
51476;DHT22;37554;50.362;7.568;2023-05-16T05:47:32;19.80;52.20
51476;DHT22;37554;50.362;7.568;2023-05-16T05:49:58;19.40;52.50
51476;DHT22;37554;50.362;7.568;2023-05-16T05:52:23;19.10;52.80
51476;DHT22;37554;50.362;7.568;2023-05-16T05:54:49;18.90;52.80
51476;DHT22;37554;50.362;7.568;2023-05-16T05:57:15;18.60;54.00
51476;DHT22;37554;50.362;7.568;2023-05-16T05:59:40;18.40;53.90
51476;DHT22;37554;50.362;7.568;2023-05-16T06:02:07;18.50;54.10
51476;DHT22;37554;50.362;7.568;2023-05-16T06:04:32;18.70;54.20
51476;DHT22;37554;50.362;7.568;2023-05-16T06:06:58;18.80;53.90
51476;DHT22;37554;50.362;7.568;2023-05-16T06:09:23;19.00;53.60
51476;DHT22;37554;50.362;7.568;2023-05-16T06:11:49;19.10;53.40
51476;DHT22;37554;50.362;7.568;2023-05-16T06:14:15;19.30;53.30
51476;DHT22;37554;50.362;7.568;2023-05-16T06:16:40;19.30;53.00
51476;DHT22;37554;50.362;7.568;2023-05-16T06:19:07;19.40;52.80
51476;DHT22;37554;50.362;7.568;2023-05-16T06:21:33;19.50;52.70
51476;DHT22;37554;50.362;7.568;2023-05-16T06:23:58;19.60;52.50
51476;DHT22;37554;50.362;7.568;2023-05-16T06:26:24;19.70;52.30
51476;DHT22;37554;50.362;7.568;2023-05-16T06:28:50;19.80;52.20
51476;DHT22;37554;50.362;7.568;2023-05-16T06:31:16;19.80;52.20
51476;DHT22;37554;50.362;7.568;2023-05-16T06:33:41;19.90;52.10
51476;DHT22;37554;50.362;7.568;2023-05-16T06:36:07;19.90;52.00
51476;DHT22;37554;50.362;7.568;2023-05-16T06:38:33;19.90;51.90
51476;DHT22;37554;50.362;7.568;2023-05-16T06:40:58;20.00;52.10
51476;DHT22;37554;50.362;7.568;2023-05-16T06:43:24;20.00;52.10
51476;DHT22;37554;50.362;7.568;2023-05-16T06:45:49;20.00;52.60
51476;DHT22;37554;50.362;7.568;2023-05-16T06:48:16;20.00;51.90
51476;DHT22;37554;50.362;7.568;2023-05-16T06:50:46;20.00;52.00
51476;DHT22;37554;50.362;7.568;2023-05-16T06:53:12;20.10;52.00
51476;DHT22;37554;50.362;7.568;2023-05-16T06:55:38;20.10;51.90
51476;DHT22;37554;50.362;7.568;2023-05-16T06:58:03;20.10;51.80
51476;DHT22;37554;50.362;7.568;2023-05-16T07:00:29;20.20;51.80
51476;DHT22;37554;50.362;7.568;2023-05-16T07:02:54;20.20;51.90
51476;DHT22;37554;50.362;7.568;2023-05-16T07:05:20;20.20;51.90
51476;DHT22;37554;50.362;7.568;2023-05-16T07:07:46;20.10;51.90
51476;DHT22;37554;50.362;7.568;2023-05-16T07:10:13;20.10;51.90
51476;DHT22;37554;50.362;7.568;2023-05-16T07:12:40;20.10;52.00
51476;DHT22;37554;50.362;7.568;2023-05-16T07:15:07;20.00;52.00
51476;DHT22;37554;50.362;7.568;2023-05-16T07:17:33;20.00;52.00
51476;DHT22;37554;50.362;7.568;2023-05-16T07:19:58;20.00;52.00
51476;DHT22;37554;50.362;7.568;2023-05-16T07:22:24;20.00;52.10
51476;DHT22;37554;50.362;7.568;2023-05-16T07:24:49;20.00;52.20
51476;DHT22;37554;50.362;7.568;2023-05-16T07:27:17;20.00;52.20
51476;DHT22;37554;50.362;7.568;2023-05-16T07:29:43;19.90;52.20
51476;DHT22;37554;50.362;7.568;2023-05-16T07:32:08;19.90;52.20
51476;DHT22;37554;50.362;7.568;2023-05-16T07:34:34;19.90;52.20
51476;DHT22;37554;50.362;7.568;2023-05-16T07:37:00;19.90;52.20
51476;DHT22;37554;50.362;7.568;2023-05-16T07:39:25;19.90;52.20
51476;DHT22;37554;50.362;7.568;2023-05-16T07:41:51;19.90;52.20
51476;DHT22;37554;50.362;7.568;2023-05-16T07:44:16;19.90;52.20
51476;DHT22;37554;50.362;7.568;2023-05-16T07:46:42;19.80;52.20
51476;DHT22;37554;50.362;7.568;2023-05-16T07:49:09;19.90;52.20
51476;DHT22;37554;50.362;7.568;2023-05-16T07:51:35;19.90;52.20
51476;DHT22;37554;50.362;7.568;2023-05-16T07:54:01;19.90;52.00
51476;DHT22;37554;50.362;7.568;2023-05-16T07:56:26;20.00;52.00
51476;DHT22;37554;50.362;7.568;2023-05-16T07:58:52;20.00;51.80
51476;DHT22;37554;50.362;7.568;2023-05-16T08:01:18;20.10;51.70
51476;DHT22;37554;50.362;7.568;2023-05-16T08:03:44;20.30;51.50
51476;DHT22;37554;50.362;7.568;2023-05-16T08:06:10;20.40;51.30
51476;DHT22;37554;50.362;7.568;2023-05-16T08:08:35;20.40;51.10
51476;DHT22;37554;50.362;7.568;2023-05-16T08:11:01;20.40;51.00
51476;DHT22;37554;50.362;7.568;2023-05-16T08:13:27;20.40;50.90
51476;DHT22;37554;50.362;7.568;2023-05-16T08:15:53;20.50;50.90
51476;DHT22;37554;50.362;7.568;2023-05-16T08:18:20;20.50;50.70
51476;DHT22;37554;50.362;7.568;2023-05-16T08:20:45;20.60;50.60
51476;DHT22;37554;50.362;7.568;2023-05-16T08:23:11;20.70;50.40
51476;DHT22;37554;50.362;7.568;2023-05-16T08:25:37;20.80;50.20
51476;DHT22;37554;50.362;7.568;2023-05-16T08:28:02;20.90;50.10
51476;DHT22;37554;50.362;7.568;2023-05-16T08:30:28;20.90;50.00
51476;DHT22;37554;50.362;7.568;2023-05-16T08:32:54;21.00;50.00
51476;DHT22;37554;50.362;7.568;2023-05-16T08:35:19;21.10;50.00
51476;DHT22;37554;50.362;7.568;2023-05-16T08:37:48;21.20;50.00
51476;DHT22;37554;50.362;7.568;2023-05-16T08:40:13;21.10;49.00
51476;DHT22;37554;50.362;7.568;2023-05-16T08:42:40;20.90;48.20
51476;DHT22;37554;50.362;7.568;2023-05-16T08:45:07;20.80;47.90
51476;DHT22;37554;50.362;7.568;2023-05-16T08:47:39;20.70;47.70
51476;DHT22;37554;50.362;7.568;2023-05-16T08:50:08;20.80;47.70
51476;DHT22;37554;50.362;7.568;2023-05-16T08:52:36;21.10;47.10
51476;DHT22;37554;50.362;7.568;2023-05-16T08:55:03;21.30;47.00
51476;DHT22;37554;50.362;7.568;2023-05-16T08:57:31;21.40;46.50
51476;DHT22;37554;50.362;7.568;2023-05-16T08:59:59;21.50;45.80
51476;DHT22;37554;50.362;7.568;2023-05-16T09:02:26;21.30;45.30
51476;DHT22;37554;50.362;7.568;2023-05-16T09:04:55;20.90;45.50
51476;DHT22;37554;50.362;7.568;2023-05-16T09:07:22;20.80;46.40
51476;DHT22;37554;50.362;7.568;2023-05-16T09:09:51;20.70;45.90
51476;DHT22;37554;50.362;7.568;2023-05-16T09:12:18;20.50;46.00
51476;DHT22;37554;50.362;7.568;2023-05-16T09:14:44;20.40;46.20
51476;DHT22;37554;50.362;7.568;2023-05-16T09:17:09;20.30;46.10
51476;DHT22;37554;50.362;7.568;2023-05-16T09:19:38;20.20;45.70
51476;DHT22;37554;50.362;7.568;2023-05-16T09:22:14;20.10;45.70
51476;DHT22;37554;50.362;7.568;2023-05-16T09:24:43;20.10;45.50
51476;DHT22;37554;50.362;7.568;2023-05-16T09:27:10;20.30;45.30
51476;DHT22;37554;50.362;7.568;2023-05-16T09:29:39;20.50;45.30
51476;DHT22;37554;50.362;7.568;2023-05-16T09:32:12;20.70;44.80
51476;DHT22;37554;50.362;7.568;2023-05-16T09:34:48;20.80;44.20
51476;DHT22;37554;50.362;7.568;2023-05-16T09:37:16;20.70;43.60
51476;DHT22;37554;50.362;7.568;2023-05-16T09:39:46;20.80;43.90
51476;DHT22;37554;50.362;7.568;2023-05-16T09:42:15;21.00;43.40
51476;DHT22;37554;50.362;7.568;2023-05-16T09:44:51;21.20;43.40
51476;DHT22;37554;50.362;7.568;2023-05-16T09:47:18;21.30;43.20
51476;DHT22;37554;50.362;7.568;2023-05-16T09:49:45;21.40;43.00
51476;DHT22;37554;50.362;7.568;2023-05-16T09:52:12;21.60;42.80
51476;DHT22;37554;50.362;7.568;2023-05-16T09:54:38;21.90;42.40
51476;DHT22;37554;50.362;7.568;2023-05-16T09:57:03;22.00;41.80
51476;DHT22;37554;50.362;7.568;2023-05-16T09:59:30;22.20;41.50
51476;DHT22;37554;50.362;7.568;2023-05-16T10:02:00;22.30;41.40
51476;DHT22;37554;50.362;7.568;2023-05-16T10:04:26;22.40;41.50
51476;DHT22;37554;50.362;7.568;2023-05-16T10:06:54;22.50;41.50
51476;DHT22;37554;50.362;7.568;2023-05-16T10:09:23;22.50;41.10
51476;DHT22;37554;50.362;7.568;2023-05-16T10:11:50;22.50;40.90
51476;DHT22;37554;50.362;7.568;2023-05-16T10:14:17;22.40;41.30
51476;DHT22;37554;50.362;7.568;2023-05-16T10:16:46;22.50;40.60
51476;DHT22;37554;50.362;7.568;2023-05-16T10:19:13;22.60;40.20
51476;DHT22;37554;50.362;7.568;2023-05-16T10:21:42;22.80;39.80
51476;DHT22;37554;50.362;7.568;2023-05-16T10:24:11;22.80;39.40
51476;DHT22;37554;50.362;7.568;2023-05-16T10:26:39;22.90;39.30
51476;DHT22;37554;50.362;7.568;2023-05-16T10:29:05;23.10;39.20
51476;DHT22;37554;50.362;7.568;2023-05-16T10:31:31;23.40;38.90
51476;DHT22;37554;50.362;7.568;2023-05-16T10:33:57;23.60;39.10
51476;DHT22;37554;50.362;7.568;2023-05-16T10:36:23;23.60;39.10
51476;DHT22;37554;50.362;7.568;2023-05-16T10:38:50;23.70;38.50
51476;DHT22;37554;50.362;7.568;2023-05-16T10:41:16;24.00;37.90
51476;DHT22;37554;50.362;7.568;2023-05-16T10:43:54;24.20;37.40
51476;DHT22;37554;50.362;7.568;2023-05-16T10:46:22;23.60;37.30
51476;DHT22;37554;50.362;7.568;2023-05-16T10:48:48;23.50;37.60
51476;DHT22;37554;50.362;7.568;2023-05-16T10:51:35;24.40;36.50
51476;DHT22;37554;50.362;7.568;2023-05-16T10:54:09;25.40;35.30
51476;DHT22;37554;50.362;7.568;2023-05-16T10:56:35;26.30;34.50
51476;DHT22;37554;50.362;7.568;2023-05-16T10:59:02;26.10;34.60
51476;DHT22;37554;50.362;7.568;2023-05-16T11:01:35;25.20;35.10
51476;DHT22;37554;50.362;7.568;2023-05-16T11:04:06;25.20;35.50
51476;DHT22;37554;50.362;7.568;2023-05-16T11:06:35;26.20;35.00
51476;DHT22;37554;50.362;7.568;2023-05-16T11:09:19;27.20;34.30
51476;DHT22;37554;50.362;7.568;2023-05-16T11:12:00;27.80;33.00
51476;DHT22;37554;50.362;7.568;2023-05-16T11:14:34;27.00;32.70
51476;DHT22;37554;50.362;7.568;2023-05-16T11:19:33;26.40;34.60
51476;DHT22;37554;50.362;7.568;2023-05-16T11:25:08;27.20;33.20
51476;DHT22;37554;50.362;7.568;2023-05-16T11:27:45;27.20;33.00
51476;DHT22;37554;50.362;7.568;2023-05-16T11:30:16;26.90;33.40
51476;DHT22;37554;50.362;7.568;2023-05-16T11:32:46;26.70;33.90
51476;DHT22;37554;50.362;7.568;2023-05-16T11:35:17;26.20;33.80
51476;DHT22;37554;50.362;7.568;2023-05-16T11:37:43;26.10;34.10
51476;DHT22;37554;50.362;7.568;2023-05-16T11:40:11;25.90;34.20
51476;DHT22;37554;50.362;7.568;2023-05-16T11:42:40;25.90;33.80
51476;DHT22;37554;50.362;7.568;2023-05-16T11:45:08;25.90;33.80
51476;DHT22;37554;50.362;7.568;2023-05-16T11:47:40;25.90;33.90
51476;DHT22;37554;50.362;7.568;2023-05-16T11:50:09;25.80;33.40
51476;DHT22;37554;50.362;7.568;2023-05-16T11:52:36;25.60;33.30
51476;DHT22;37554;50.362;7.568;2023-05-16T11:55:04;25.50;33.50
51476;DHT22;37554;50.362;7.568;2023-05-16T11:57:31;25.50;33.50
51476;DHT22;37554;50.362;7.568;2023-05-16T12:00:22;25.30;33.30
51476;DHT22;37554;50.362;7.568;2023-05-16T12:02:49;25.30;33.50
51476;DHT22;37554;50.362;7.568;2023-05-16T12:05:16;25.90;33.50
51476;DHT22;37554;50.362;7.568;2023-05-16T12:07:45;26.70;33.20
51476;DHT22;37554;50.362;7.568;2023-05-16T12:10:13;27.40;32.90
51476;DHT22;37554;50.362;7.568;2023-05-16T12:12:44;27.90;32.60
51476;DHT22;37554;50.362;7.568;2023-05-16T12:15:11;28.60;32.30
51476;DHT22;37554;50.362;7.568;2023-05-16T12:17:39;29.20;32.10
51476;DHT22;37554;50.362;7.568;2023-05-16T12:20:05;29.60;32.00
51476;DHT22;37554;50.362;7.568;2023-05-16T12:22:32;30.10;32.10
51476;DHT22;37554;50.362;7.568;2023-05-16T12:24:58;30.50;32.00
51476;DHT22;37554;50.362;7.568;2023-05-16T12:27:25;30.80;31.90
51476;DHT22;37554;50.362;7.568;2023-05-16T12:29:52;30.90;31.90
51476;DHT22;37554;50.362;7.568;2023-05-16T12:32:20;31.30;31.70
51476;DHT22;37554;50.362;7.568;2023-05-16T12:34:50;31.50;31.60
51476;DHT22;37554;50.362;7.568;2023-05-16T12:37:17;31.60;31.60
51476;DHT22;37554;50.362;7.568;2023-05-16T12:39:43;31.90;31.70
51476;DHT22;37554;50.362;7.568;2023-05-16T12:42:12;32.30;31.70
51476;DHT22;37554;50.362;7.568;2023-05-16T12:44:39;32.40;31.50
51476;DHT22;37554;50.362;7.568;2023-05-16T12:47:10;32.20;31.50
51476;DHT22;37554;50.362;7.568;2023-05-16T12:49:43;32.20;31.20
51476;DHT22;37554;50.362;7.568;2023-05-16T12:52:16;32.10;31.30
51476;DHT22;37554;50.362;7.568;2023-05-16T12:54:44;32.30;31.40
51476;DHT22;37554;50.362;7.568;2023-05-16T12:57:09;32.60;31.30
51476;DHT22;37554;50.362;7.568;2023-05-16T12:59:35;32.60;31.20
51476;DHT22;37554;50.362;7.568;2023-05-16T13:02:01;32.40;31.30
51476;DHT22;37554;50.362;7.568;2023-05-16T13:04:28;32.30;31.30
51476;DHT22;37554;50.362;7.568;2023-05-16T13:06:53;32.20;31.20
51476;DHT22;37554;50.362;7.568;2023-05-16T13:09:19;32.00;31.10
51476;DHT22;37554;50.362;7.568;2023-05-16T13:11:44;31.80;31.30
51476;DHT22;37554;50.362;7.568;2023-05-16T13:14:10;31.60;31.30
51476;DHT22;37554;50.362;7.568;2023-05-16T13:16:37;31.80;31.10
51476;DHT22;37554;50.362;7.568;2023-05-16T13:19:03;31.90;31.10
51476;DHT22;37554;50.362;7.568;2023-05-16T13:21:29;31.70;30.90
51476;DHT22;37554;50.362;7.568;2023-05-16T13:23:56;31.60;30.90
51476;DHT22;37554;50.362;7.568;2023-05-16T13:26:22;31.60;30.90
51476;DHT22;37554;50.362;7.568;2023-05-16T13:28:48;31.50;31.00
51476;DHT22;37554;50.362;7.568;2023-05-16T13:31:17;31.40;31.10
51476;DHT22;37554;50.362;7.568;2023-05-16T13:33:43;31.30;31.20
51476;DHT22;37554;50.362;7.568;2023-05-16T13:36:09;31.30;31.20
51476;DHT22;37554;50.362;7.568;2023-05-16T13:38:35;31.50;31.20
51476;DHT22;37554;50.362;7.568;2023-05-16T13:41:00;31.60;31.30
51476;DHT22;37554;50.362;7.568;2023-05-16T13:43:26;31.80;31.20
51476;DHT22;37554;50.362;7.568;2023-05-16T13:45:51;31.90;31.10
51476;DHT22;37554;50.362;7.568;2023-05-16T13:48:17;32.10;31.20
51476;DHT22;37554;50.362;7.568;2023-05-16T13:50:43;32.30;31.10
51476;DHT22;37554;50.362;7.568;2023-05-16T13:53:09;32.40;31.10
51476;DHT22;37554;50.362;7.568;2023-05-16T13:55:35;32.30;31.00
51476;DHT22;37554;50.362;7.568;2023-05-16T13:58:01;32.10;30.80
51476;DHT22;37554;50.362;7.568;2023-05-16T14:00:27;32.00;30.90
51476;DHT22;37554;50.362;7.568;2023-05-16T14:02:53;31.90;30.90
51476;DHT22;37554;50.362;7.568;2023-05-16T14:05:18;31.80;30.70
51476;DHT22;37554;50.362;7.568;2023-05-16T14:07:44;31.70;30.80
51476;DHT22;37554;50.362;7.568;2023-05-16T14:10:10;31.50;31.00
51476;DHT22;37554;50.362;7.568;2023-05-16T14:12:36;31.40;31.00
51476;DHT22;37554;50.362;7.568;2023-05-16T14:15:03;31.20;31.00
51476;DHT22;37554;50.362;7.568;2023-05-16T14:17:29;31.10;31.10
51476;DHT22;37554;50.362;7.568;2023-05-16T14:19:54;31.00;31.20
51476;DHT22;37554;50.362;7.568;2023-05-16T14:22:20;30.80;31.10
51476;DHT22;37554;50.362;7.568;2023-05-16T14:24:46;30.80;31.20
51476;DHT22;37554;50.362;7.568;2023-05-16T14:27:11;30.80;31.20
51476;DHT22;37554;50.362;7.568;2023-05-16T14:29:39;30.80;31.30
51476;DHT22;37554;50.362;7.568;2023-05-16T14:32:06;30.70;31.20
51476;DHT22;37554;50.362;7.568;2023-05-16T14:34:32;30.60;31.40
51476;DHT22;37554;50.362;7.568;2023-05-16T14:36:58;30.40;31.40
51476;DHT22;37554;50.362;7.568;2023-05-16T14:39:24;30.30;31.50
51476;DHT22;37554;50.362;7.568;2023-05-16T14:41:50;30.20;31.90
51476;DHT22;37554;50.362;7.568;2023-05-16T14:44:16;30.00;32.40
51476;DHT22;37554;50.362;7.568;2023-05-16T14:46:42;29.80;32.80
51476;DHT22;37554;50.362;7.568;2023-05-16T14:49:07;29.60;33.20
51476;DHT22;37554;50.362;7.568;2023-05-16T14:51:33;30.00;33.20
51476;DHT22;37554;50.362;7.568;2023-05-16T14:53:59;30.50;33.10
51476;DHT22;37554;50.362;7.568;2023-05-16T14:56:25;30.80;33.00
51476;DHT22;37554;50.362;7.568;2023-05-16T14:58:51;30.70;33.30
51476;DHT22;37554;50.362;7.568;2023-05-16T15:01:16;30.90;33.60
51476;DHT22;37554;50.362;7.568;2023-05-16T15:03:42;30.90;33.90
51476;DHT22;37554;50.362;7.568;2023-05-16T15:06:08;30.60;34.20
51476;DHT22;37554;50.362;7.568;2023-05-16T15:08:33;30.30;34.50
51476;DHT22;37554;50.362;7.568;2023-05-16T15:10:59;30.00;34.80
51476;DHT22;37554;50.362;7.568;2023-05-16T15:13:25;29.80;35.10
51476;DHT22;37554;50.362;7.568;2023-05-16T15:15:51;29.60;35.40
51476;DHT22;37554;50.362;7.568;2023-05-16T15:18:17;29.50;35.70
51476;DHT22;37554;50.362;7.568;2023-05-16T15:20:42;29.40;35.80
51476;DHT22;37554;50.362;7.568;2023-05-16T15:23:08;29.30;35.90
51476;DHT22;37554;50.362;7.568;2023-05-16T15:25:34;29.30;35.90
51476;DHT22;37554;50.362;7.568;2023-05-16T15:27:59;29.10;36.10
51476;DHT22;37554;50.362;7.568;2023-05-16T15:30:25;29.00;36.00
51476;DHT22;37554;50.362;7.568;2023-05-16T15:32:51;28.80;35.80
51476;DHT22;37554;50.362;7.568;2023-05-16T15:35:17;28.70;36.20
51476;DHT22;37554;50.362;7.568;2023-05-16T15:37:42;28.60;36.30
51476;DHT22;37554;50.362;7.568;2023-05-16T15:40:09;28.40;35.80
51476;DHT22;37554;50.362;7.568;2023-05-16T15:42:35;28.20;35.50
51476;DHT22;37554;50.362;7.568;2023-05-16T15:45:01;28.10;35.50